createdAt,value
2019-04-05T00:00:16.679Z,40.76
2019-04-05T00:02:48.885Z,40.71
2019-04-05T00:05:20.849Z,40.71
2019-04-05T00:07:52.889Z,40.77
2019-04-05T00:10:25.473Z,40.77
2019-04-05T00:12:58.450Z,40.77
2019-04-05T00:15:31.165Z,40.83
2019-04-05T00:18:04.339Z,40.86
2019-04-05T00:20:36.939Z,40.76
2019-04-05T00:23:09.892Z,40.80
2019-04-05T00:25:42.071Z,40.76
2019-04-05T00:28:14.338Z,40.76
2019-04-05T00:30:46.882Z,40.78
2019-04-05T00:33:18.858Z,40.84
2019-04-05T00:35:50.904Z,40.78
2019-04-05T00:38:22.878Z,40.77
2019-04-05T00:40:54.831Z,40.86
2019-04-05T00:43:26.869Z,40.77
2019-04-05T00:45:59.335Z,40.77
2019-04-05T00:48:32.139Z,40.81
2019-04-05T00:51:04.865Z,40.78
2019-04-05T00:53:37.799Z,40.72
2019-04-05T00:56:08.748Z,40.75
2019-04-05T00:58:41.339Z,40.69
2019-04-05T01:01:14.336Z,40.77
2019-04-05T01:03:46.911Z,40.83
2019-04-05T01:06:19.367Z,40.75
2019-04-05T01:08:52.281Z,40.68
2019-04-05T01:11:24.832Z,40.74
2019-04-05T01:13:57.520Z,40.77
2019-04-05T01:16:29.841Z,40.79
2019-04-05T01:19:04.023Z,40.69
2019-04-05T01:21:41.655Z,40.73
2019-04-05T01:24:13.905Z,40.80
2019-04-05T01:26:46.876Z,40.80
2019-04-05T01:29:19.182Z,40.76
2019-04-05T01:31:51.861Z,40.75
2019-04-05T01:34:24.402Z,40.66
2019-04-05T01:36:56.831Z,40.65
2019-04-05T01:39:28.916Z,40.68
2019-04-05T01:42:00.888Z,40.72
2019-04-05T01:44:32.897Z,40.72
2019-04-05T01:47:05.100Z,40.64
2019-04-05T01:49:37.343Z,40.69
2019-04-05T01:52:09.895Z,40.68
2019-04-05T01:54:42.052Z,40.64
2019-04-05T01:57:14.377Z,40.73
2019-04-05T01:59:46.946Z,40.62
2019-04-05T02:02:19.335Z,40.79
2019-04-05T02:04:52.964Z,40.72
2019-04-05T02:07:25.881Z,40.64
2019-04-05T02:09:58.400Z,40.70
2019-04-05T02:12:30.805Z,40.78
2019-04-05T02:15:03.010Z,40.81
2019-04-05T02:17:36.105Z,40.69
2019-04-05T02:20:09.814Z,40.72
2019-04-05T02:22:41.858Z,40.74
2019-04-05T02:25:14.078Z,40.86
2019-04-05T02:27:46.354Z,40.80
2019-04-05T02:30:18.906Z,40.84
2019-04-05T02:32:51.358Z,40.78
2019-04-05T02:35:23.853Z,40.72
2019-04-05T02:37:57.594Z,40.66
2019-04-05T02:40:29.836Z,40.62
2019-04-05T02:43:03.100Z,40.62
2019-04-05T02:45:35.701Z,40.77
2019-04-05T02:48:08.710Z,40.74
2019-04-05T02:50:42.497Z,40.83
2019-04-05T02:53:14.885Z,40.80
2019-04-05T02:55:47.327Z,40.75
2019-04-05T02:58:19.488Z,40.69
2019-04-05T03:00:52.449Z,40.75
2019-04-05T03:03:24.891Z,40.77
2019-04-05T03:05:57.341Z,40.69
2019-04-05T03:08:30.021Z,40.72
2019-04-05T03:11:16.073Z,40.72
2019-04-05T03:13:55.426Z,40.76
2019-04-05T03:16:41.060Z,40.86
2019-04-05T03:19:25.336Z,40.77
2019-04-05T03:22:07.403Z,40.72
2019-04-05T03:24:40.886Z,40.75
2019-04-05T03:27:34.925Z,40.80
2019-04-05T03:30:08.107Z,40.86
2019-04-05T03:32:40.883Z,40.76
2019-04-05T03:35:13.877Z,40.91
2019-04-05T03:37:46.326Z,40.93
2019-04-05T03:40:18.921Z,40.91
2019-04-05T03:42:51.368Z,40.93
2019-04-05T03:45:23.820Z,40.96
2019-04-05T03:47:55.865Z,40.88
2019-04-05T03:50:28.331Z,40.90
2019-04-05T03:53:00.925Z,40.83
2019-04-05T03:55:33.378Z,40.88
2019-04-05T03:58:05.868Z,40.99
2019-04-05T04:00:38.324Z,40.98
2019-04-05T04:03:10.892Z,41.03
2019-04-05T04:05:43.329Z,40.98
2019-04-05T04:08:17.118Z,41.03
2019-04-05T04:10:49.909Z,41.01
2019-04-05T04:13:21.997Z,40.94
2019-04-05T04:15:54.887Z,40.96
2019-04-05T04:18:27.543Z,41.00
2019-04-05T04:21:06.376Z,40.97
2019-04-05T04:23:39.313Z,41.05
2019-04-05T04:26:11.850Z,41.02
2019-04-05T04:28:44.695Z,41.08
2019-04-05T04:31:16.139Z,41.04
2019-04-05T04:33:49.427Z,41.09
2019-04-05T04:36:21.941Z,41.12
2019-04-05T04:38:54.328Z,41.18
2019-04-05T04:41:27.338Z,41.15
2019-04-05T04:43:59.654Z,41.12
2019-04-05T04:46:32.021Z,41.57
2019-04-05T04:49:13.492Z,41.57
2019-04-05T04:51:49.303Z,41.48
2019-04-05T04:54:22.333Z,41.39
2019-04-05T04:56:54.875Z,41.45
2019-04-05T04:59:26.880Z,41.39
2019-04-05T05:01:59.376Z,41.50
2019-04-05T05:04:32.328Z,41.51
2019-04-05T05:07:04.933Z,41.58
2019-04-05T05:09:37.358Z,41.47
2019-04-05T05:12:09.855Z,41.51
2019-04-05T05:14:41.865Z,41.55
2019-04-05T05:17:13.916Z,41.55
2019-04-05T05:19:45.943Z,41.64
2019-04-05T05:22:18.350Z,41.52
2019-04-05T05:24:50.833Z,41.49
2019-04-05T05:27:23.067Z,41.57
2019-04-05T05:29:55.833Z,41.47
2019-04-05T05:32:27.857Z,41.42
2019-04-05T05:35:02.167Z,41.49
2019-04-05T05:37:34.421Z,41.58
2019-04-05T05:40:07.276Z,41.61
2019-04-05T05:42:40.349Z,41.51
2019-04-05T05:45:13.795Z,41.52
2019-04-05T05:47:52.113Z,41.53
2019-04-05T05:50:20.620Z,41.44
2019-04-05T05:52:52.852Z,41.63
2019-04-05T05:55:25.319Z,41.63
2019-04-05T05:57:58.790Z,41.56
2019-04-05T06:00:32.087Z,41.40
2019-04-05T06:03:06.187Z,41.36
2019-04-05T06:05:39.062Z,41.45
2019-04-05T06:08:11.398Z,41.45
2019-04-05T06:10:44.317Z,41.47
2019-04-05T06:13:16.547Z,41.54
2019-04-05T06:15:49.331Z,41.55
2019-04-05T06:18:21.783Z,41.54
2019-04-05T06:20:53.983Z,41.59
2019-04-05T06:23:33.615Z,41.57
2019-04-05T06:26:00.835Z,41.44
2019-04-05T06:28:32.935Z,41.50
2019-04-05T06:31:05.340Z,41.55
2019-04-05T06:33:37.975Z,41.48
2019-04-05T06:36:10.343Z,41.55
2019-04-05T06:38:42.918Z,41.58
2019-04-05T06:41:15.040Z,41.54
2019-04-05T06:43:47.410Z,41.51
2019-04-05T06:46:19.845Z,41.59
2019-04-05T06:48:51.893Z,41.59
2019-04-05T06:51:23.978Z,41.59
2019-04-05T06:53:57.070Z,41.61
2019-04-05T06:56:29.455Z,41.63
2019-04-05T06:59:52.281Z,41.64
2019-04-05T07:02:24.788Z,41.50
2019-04-05T07:04:56.905Z,41.56
2019-04-05T07:07:28.873Z,41.57
2019-04-05T07:10:01.040Z,41.46
2019-04-05T07:12:33.320Z,41.52
2019-04-05T07:15:06.358Z,41.47
2019-04-05T07:17:38.892Z,41.53
2019-04-05T07:20:11.336Z,41.51
2019-04-05T07:22:43.881Z,41.50
2019-04-05T07:25:16.436Z,41.47
2019-04-05T07:27:48.817Z,41.43
2019-04-05T07:30:21.378Z,41.36
2019-04-05T07:32:54.049Z,41.47
2019-04-05T07:35:33.244Z,41.51
2019-04-05T07:38:00.489Z,41.64
2019-04-05T07:40:32.848Z,41.57
2019-04-05T07:43:04.925Z,41.58
2019-04-05T07:45:37.855Z,41.58
2019-04-05T07:48:10.046Z,41.52
2019-04-05T07:50:42.436Z,41.57
2019-04-05T07:53:14.846Z,41.59
2019-04-05T07:55:46.929Z,41.56
2019-04-05T07:58:19.651Z,41.62
2019-04-05T08:00:59.358Z,41.59
2019-04-05T08:03:32.325Z,41.59
2019-04-05T08:06:05.325Z,41.60
2019-04-05T08:09:06.389Z,41.60
2019-04-05T08:11:38.914Z,41.72
2019-04-05T08:14:11.876Z,41.63
2019-04-05T08:16:43.893Z,41.64
2019-04-05T08:19:16.864Z,41.57
2019-04-05T08:21:49.369Z,41.65
2019-04-05T08:24:21.887Z,41.60
2019-04-05T08:26:54.395Z,41.41
2019-04-05T08:29:27.019Z,41.34
2019-04-05T08:32:13.628Z,41.29
2019-04-05T08:34:35.348Z,41.22
2019-04-05T08:37:08.094Z,41.22
2019-04-05T08:39:40.308Z,41.13
2019-04-05T08:42:13.287Z,41.14
2019-04-05T08:44:46.321Z,41.09
2019-04-05T08:47:18.838Z,40.95
2019-04-05T08:49:51.350Z,40.98
2019-04-05T08:52:26.879Z,40.81
2019-04-05T08:54:58.092Z,40.87
2019-04-05T08:57:30.892Z,41.07
2019-04-05T09:00:03.328Z,40.88
2019-04-05T09:02:35.904Z,40.79
2019-04-05T09:05:08.839Z,40.74
2019-04-05T09:07:40.836Z,40.57
2019-04-05T09:10:13.354Z,40.63
2019-04-05T09:12:46.137Z,40.76
2019-04-05T09:15:18.327Z,40.71
2019-04-05T09:17:50.949Z,40.72
2019-04-05T09:20:23.510Z,40.62
2019-04-05T09:22:56.481Z,40.62
2019-04-05T09:25:30.508Z,40.65
2019-04-05T09:28:03.507Z,40.64
2019-04-05T09:30:35.999Z,40.68
2019-04-05T09:33:09.362Z,40.58
2019-04-05T09:35:42.338Z,40.45
2019-04-05T09:38:14.883Z,40.59
2019-04-05T09:40:49.358Z,40.62
2019-04-05T09:43:21.896Z,40.64
2019-04-05T09:45:54.425Z,40.61
2019-04-05T09:48:26.885Z,40.54
2019-04-05T09:50:59.347Z,40.53
2019-04-05T09:53:31.942Z,40.58
2019-04-05T09:56:04.834Z,40.55
2019-04-05T09:58:40.852Z,40.46
2019-04-05T10:01:14.996Z,40.65
2019-04-05T10:03:47.396Z,40.58
2019-04-05T10:06:19.863Z,40.50
2019-04-05T10:08:52.694Z,40.45
2019-04-05T10:11:28.420Z,40.22
2019-04-05T10:13:59.865Z,40.22
2019-04-05T10:16:32.348Z,40.16
2019-04-05T10:19:04.903Z,40.09
2019-04-05T10:21:39.347Z,40.09
2019-04-05T10:24:11.901Z,40.08
2019-04-05T10:26:44.497Z,40.11
2019-04-05T10:29:17.070Z,40.05
2019-04-05T10:31:49.363Z,40.11
2019-04-05T10:34:21.904Z,40.00
2019-04-05T10:36:54.057Z,39.79
2019-04-05T10:39:26.397Z,39.97
2019-04-05T10:42:03.786Z,39.95
2019-04-05T10:44:34.005Z,40.04
2019-04-05T10:47:06.364Z,39.95
2019-04-05T10:49:42.076Z,40.06
2019-04-05T10:52:13.939Z,40.10
2019-04-05T10:54:45.862Z,40.06
2019-04-05T10:57:18.131Z,40.01
2019-04-05T10:59:50.921Z,40.03
2019-04-05T11:02:23.025Z,40.02
2019-04-05T11:04:56.821Z,39.93
2019-04-05T11:07:29.324Z,39.82
2019-04-05T11:10:01.909Z,39.97
2019-04-05T11:12:34.580Z,40.05
2019-04-05T11:15:07.833Z,39.88
2019-04-05T11:17:42.272Z,39.88
2019-04-05T11:20:21.053Z,39.76
2019-04-05T11:22:50.918Z,39.76
2019-04-05T11:25:23.891Z,39.74
2019-04-05T11:27:56.718Z,39.75
2019-04-05T11:30:45.752Z,39.72
2019-04-05T11:33:19.513Z,39.65
2019-04-05T11:35:49.956Z,39.69
2019-04-05T11:38:24.233Z,39.56
2019-04-05T11:40:56.910Z,39.47
2019-04-05T11:43:32.963Z,39.69
2019-04-05T11:46:06.195Z,39.65
2019-04-05T11:48:41.175Z,39.55
2019-04-05T11:51:13.324Z,39.56
2019-04-05T11:53:55.134Z,39.56
2019-04-05T11:56:27.838Z,39.58
2019-04-05T11:59:01.127Z,39.60
2019-04-05T12:01:45.822Z,39.62
2019-04-05T12:04:17.862Z,39.60
2019-04-05T12:06:51.772Z,39.69
2019-04-05T12:09:23.852Z,39.36
2019-04-05T12:11:55.907Z,39.71
2019-04-05T12:14:40.881Z,39.55
2019-04-05T12:17:12.872Z,39.48
2019-04-05T12:19:44.889Z,39.47
2019-04-05T12:22:19.821Z,39.48
2019-04-05T12:24:51.463Z,39.58
2019-04-05T12:27:23.871Z,39.48
2019-04-05T12:29:55.898Z,39.58
2019-04-05T12:32:34.065Z,39.46
2019-04-05T12:35:04.519Z,39.35
2019-04-05T12:37:49.630Z,39.32
2019-04-05T12:40:14.723Z,39.42
2019-04-05T12:42:45.745Z,39.34
2019-04-05T12:45:20.815Z,39.34
2019-04-05T12:47:52.909Z,39.45
2019-04-05T12:50:24.940Z,39.43
2019-04-05T12:52:57.419Z,39.49
2019-04-05T12:55:29.897Z,39.49
2019-04-05T12:58:02.308Z,39.31
2019-04-05T13:00:34.928Z,39.34
2019-04-05T13:03:06.990Z,39.40
2019-04-05T13:05:39.321Z,39.44
2019-04-05T13:08:11.807Z,39.36
2019-04-05T13:10:43.898Z,39.32
2019-04-05T13:13:20.811Z,39.29
2019-04-05T13:15:55.778Z,39.40
2019-04-05T13:18:30.630Z,39.44
2019-04-05T13:21:14.008Z,39.44
2019-04-05T13:23:36.598Z,39.37
2019-04-05T13:26:12.538Z,39.41
2019-04-05T13:28:48.686Z,39.41
2019-04-05T13:31:21.879Z,39.48
2019-04-05T13:33:55.188Z,39.55
2019-04-05T13:36:29.764Z,39.40
2019-04-05T13:39:01.876Z,39.40
2019-04-05T13:41:34.046Z,39.41
2019-04-05T13:44:06.902Z,39.56
2019-04-05T13:46:39.293Z,39.57
2019-04-05T13:49:13.069Z,39.68
2019-04-05T13:51:47.492Z,39.62
2019-04-05T13:54:19.855Z,39.65
2019-04-05T13:56:55.051Z,39.58
2019-04-05T13:59:28.479Z,39.56
2019-04-05T14:02:06.343Z,39.54
2019-04-05T14:04:34.894Z,39.56
2019-04-05T14:07:07.863Z,39.56
2019-04-05T14:09:40.709Z,38.99
2019-04-05T14:12:13.965Z,38.79
2019-04-05T14:14:48.766Z,38.49
2019-04-05T14:17:20.850Z,38.12
2019-04-05T14:19:53.019Z,37.75
2019-04-05T14:22:25.333Z,37.62
2019-04-05T14:24:58.018Z,37.45
2019-04-05T14:27:34.814Z,37.08
2019-04-05T14:30:05.572Z,37.26
2019-04-05T14:32:38.318Z,37.27
2019-04-05T14:35:10.944Z,37.27
2019-04-05T14:37:43.324Z,37.39
2019-04-05T14:40:16.332Z,37.48
2019-04-05T14:42:48.865Z,37.53
2019-04-05T14:45:21.319Z,37.44
2019-04-05T14:47:57.682Z,37.52
2019-04-05T14:50:28.942Z,37.24
2019-04-05T14:53:02.279Z,37.24
2019-04-05T14:55:35.526Z,37.58
2019-04-05T14:58:10.344Z,37.63
2019-04-05T15:00:41.875Z,37.67
2019-04-05T15:03:14.325Z,37.67
2019-04-05T15:05:46.862Z,37.79
2019-04-05T15:08:20.659Z,38.04
2019-04-05T15:10:56.611Z,38.30
2019-04-05T15:13:27.277Z,38.19
2019-04-05T15:15:59.887Z,38.04
2019-04-05T15:18:32.065Z,38.12
2019-04-05T15:21:06.362Z,38.10
2019-04-05T15:23:41.075Z,38.34
2019-04-05T15:26:12.375Z,38.33
2019-04-05T15:28:45.378Z,38.33
2019-04-05T15:31:18.096Z,38.17
2019-04-05T15:33:50.329Z,38.20
2019-04-05T15:36:22.859Z,38.34
2019-04-05T15:38:54.881Z,38.50
2019-04-05T15:41:27.048Z,38.83
2019-04-05T15:43:59.367Z,39.13
2019-04-05T15:46:32.119Z,39.15
2019-04-05T15:49:19.452Z,39.23
2019-04-05T15:51:54.317Z,39.32
2019-04-05T15:54:28.809Z,39.55
2019-04-05T15:57:10.320Z,39.53
2019-04-05T15:59:45.102Z,39.35
2019-04-05T16:02:16.878Z,39.70
2019-04-05T16:04:49.097Z,39.70
2019-04-05T16:07:21.323Z,39.37
2019-04-05T16:09:53.868Z,39.39
2019-04-05T16:12:26.323Z,39.69
2019-04-05T16:14:58.962Z,39.78
2019-04-05T16:17:31.012Z,40.45
2019-04-05T16:20:03.161Z,40.62
2019-04-05T16:22:36.023Z,40.49
2019-04-05T16:25:09.024Z,40.48
2019-04-05T16:27:41.322Z,40.43
2019-04-05T16:30:15.328Z,40.93
2019-04-05T16:32:47.888Z,40.91
2019-04-05T16:35:19.855Z,40.95
2019-04-05T16:37:51.889Z,40.24
2019-04-05T16:40:24.307Z,40.01
2019-04-05T16:43:02.759Z,39.55
2019-04-05T16:45:31.367Z,39.61
2019-04-05T16:48:03.897Z,39.29
2019-04-05T16:50:35.901Z,39.35
2019-04-05T16:56:00.758Z,39.23
2019-04-05T16:58:32.273Z,38.94
2019-04-05T17:01:04.841Z,39.32
2019-04-05T17:03:36.937Z,39.33
2019-04-05T17:06:09.100Z,39.14
2019-04-05T17:08:41.852Z,39.20
2019-04-05T17:11:13.820Z,39.39
2019-04-05T17:13:45.902Z,39.41
2019-04-05T17:16:18.324Z,39.37
2019-04-05T17:18:52.489Z,39.49
2019-04-05T17:21:24.938Z,39.58
2019-04-05T17:23:57.263Z,39.93
2019-04-05T17:26:29.617Z,39.70
2019-04-05T17:29:01.927Z,39.81
2019-04-05T17:31:34.327Z,39.90
2019-04-05T17:34:06.836Z,40.02
2019-04-05T17:36:39.033Z,40.05
2019-04-05T17:39:11.872Z,40.22
2019-04-05T17:41:44.280Z,40.21
2019-04-05T17:44:16.804Z,40.52
2019-04-05T17:46:48.866Z,40.01
2019-04-05T17:49:21.333Z,39.99
2019-04-05T17:51:53.851Z,39.95
2019-04-05T17:54:27.123Z,40.13
2019-04-05T17:56:59.541Z,40.02
2019-04-05T17:59:31.860Z,40.50
2019-04-05T18:02:03.957Z,40.56
2019-04-05T18:04:40.065Z,40.44
2019-04-05T18:07:12.896Z,40.00
2019-04-05T18:09:44.834Z,39.60
2019-04-05T18:12:17.043Z,39.36
2019-04-05T18:14:50.136Z,39.20
2019-04-05T18:17:24.915Z,39.23
2019-04-05T18:20:02.455Z,39.28
2019-04-05T18:22:58.338Z,39.31
2019-04-05T18:25:31.368Z,39.29
2019-04-05T18:28:04.059Z,39.52
2019-04-05T18:30:38.754Z,39.53
2019-04-05T18:33:15.942Z,39.58
2019-04-05T18:35:48.870Z,39.67
2019-04-05T18:38:26.246Z,39.79
2019-04-05T18:41:01.402Z,39.89
2019-04-05T18:43:33.841Z,39.98
2019-04-05T18:46:06.728Z,40.11
2019-04-05T18:48:38.889Z,39.91
2019-04-05T18:51:10.889Z,39.73
2019-04-05T18:53:43.356Z,39.86
2019-04-05T18:56:15.887Z,39.90
2019-04-05T18:58:48.837Z,40.17
2019-04-05T19:01:21.534Z,40.25
2019-04-05T19:03:55.110Z,40.25
2019-04-05T19:06:27.849Z,40.18
2019-04-05T19:09:00.785Z,40.47
2019-04-05T19:11:34.077Z,40.44
2019-04-05T19:14:09.766Z,40.34
2019-04-05T19:16:42.029Z,40.46
2019-04-05T19:19:17.819Z,40.39
2019-04-05T19:21:52.169Z,40.48
2019-04-05T19:24:24.879Z,40.50
2019-04-05T19:26:57.123Z,40.50
2019-04-05T19:29:29.870Z,40.54
2019-04-05T19:50:16.137Z,40.66
2019-04-05T19:55:31.489Z,40.94
2019-04-05T19:58:04.926Z,40.95
2019-04-05T20:00:38.066Z,41.00
2019-04-05T20:03:15.668Z,41.08
2019-04-05T20:05:49.526Z,41.05
2019-04-05T20:08:22.921Z,41.22
2019-04-05T20:10:56.735Z,40.99
2019-04-05T20:13:30.138Z,41.30
2019-04-05T20:16:05.818Z,41.30
2019-04-05T20:18:39.535Z,41.34
2019-04-05T20:21:12.834Z,41.16
2019-04-05T20:23:47.794Z,41.16
2019-04-05T20:26:20.763Z,41.37
2019-04-05T20:28:53.065Z,41.39
2019-04-05T20:31:26.379Z,41.43
2019-04-05T20:33:59.382Z,41.56
2019-04-05T20:36:32.847Z,41.48
2019-04-05T20:39:05.937Z,41.62
2019-04-05T20:41:39.366Z,41.62
2019-04-05T20:44:12.715Z,41.28
2019-04-05T20:46:48.390Z,41.56
2019-04-05T20:49:20.862Z,41.57
2019-04-05T20:51:53.288Z,41.49
2019-04-05T20:54:26.375Z,41.70
2019-04-05T20:56:59.355Z,41.74
2019-04-05T20:59:32.149Z,41.59
2019-04-05T21:02:05.132Z,41.65
2019-04-05T21:04:39.102Z,41.60
2019-04-05T21:07:12.602Z,41.74
2019-04-05T21:09:45.061Z,41.85
2019-04-05T21:12:18.600Z,41.90
2019-04-05T21:14:52.484Z,41.92
2019-04-05T21:17:26.259Z,41.92
2019-04-05T21:19:59.468Z,41.84
2019-04-05T21:22:32.545Z,41.82
2019-04-05T21:25:04.915Z,41.90
2019-04-05T21:27:38.440Z,41.90
2019-04-05T21:30:11.986Z,42.00
2019-04-05T21:32:46.029Z,42.04
2019-04-05T21:35:19.379Z,42.01
2019-04-05T21:37:52.751Z,41.96
2019-04-05T21:40:25.419Z,41.85
2019-04-05T21:42:58.566Z,42.10
2019-04-05T21:45:31.397Z,42.07
2019-04-05T21:48:04.747Z,42.24
2019-04-05T21:50:38.471Z,42.25
2019-04-05T21:53:12.387Z,42.23
2019-04-05T21:55:46.333Z,42.30
2019-04-05T21:58:19.384Z,42.11
2019-04-05T22:00:57.362Z,42.15
2019-04-05T22:03:30.134Z,42.16
2019-04-05T22:06:06.344Z,41.90
2019-04-05T22:08:39.312Z,42.18
2019-04-05T22:11:12.354Z,42.36
2019-04-05T22:13:45.552Z,42.33
2019-04-05T22:16:18.341Z,42.18
2019-04-05T22:18:51.381Z,42.27
2019-04-05T22:21:24.362Z,42.30
2019-04-05T22:23:56.873Z,42.32
2019-04-05T22:26:28.916Z,42.56
2019-04-05T22:29:00.887Z,42.13
2019-04-05T22:31:32.883Z,42.18
2019-04-05T22:34:05.075Z,42.30
2019-04-05T22:36:37.347Z,42.31
2019-04-05T22:39:09.908Z,42.43
2019-04-05T22:41:42.042Z,42.38
2019-04-05T22:44:14.335Z,42.29
2019-04-05T22:46:46.910Z,42.35
2019-04-05T22:49:18.879Z,42.33
2019-04-05T22:51:50.901Z,42.35
2019-04-05T22:54:23.416Z,42.35
2019-04-05T22:56:55.860Z,42.43
2019-04-05T22:59:28.298Z,42.35
2019-04-05T23:02:00.905Z,42.06
2019-04-05T23:04:33.041Z,42.34
2019-04-05T23:07:05.296Z,42.33
2019-04-05T23:09:37.890Z,42.38
2019-04-05T23:12:10.341Z,42.37
2019-04-05T23:14:42.834Z,42.45
2019-04-05T23:17:15.104Z,42.45
2019-04-05T23:19:47.852Z,42.29
2019-04-05T23:22:20.901Z,42.16
2019-04-05T23:24:53.047Z,42.39
2019-04-05T23:27:25.328Z,42.46
2019-04-05T23:29:57.906Z,42.45
2019-04-05T23:32:30.613Z,42.37
2019-04-05T23:35:02.899Z,42.49
2019-04-05T23:37:36.031Z,42.49
2019-04-05T23:40:09.361Z,42.39
2019-04-05T23:42:42.375Z,42.37
2019-04-05T23:45:14.848Z,42.57
2019-04-05T23:47:46.894Z,42.57
2019-04-05T23:50:18.898Z,42.45
2019-04-05T23:52:51.819Z,42.48
2019-04-05T23:55:32.825Z,42.33
2019-04-05T23:57:59.642Z,42.39
